sensor_id;sensor_type;location;lat;lon;timestamp;noise_LAeq;noise_LA_min;noise_LA_max;noise_LA01;noise_LA95
70454;Laerm;57915;47.174;14.680;2024-03-08T00:00:48;44.05;38.50;50.02;;
70454;Laerm;57915;47.174;14.680;2024-03-08T00:01:51;37.52;34.26;46.00;;
70454;Laerm;57915;47.174;14.680;2024-03-08T00:02:52;36.08;33.39;39.09;;
70454;Laerm;57915;47.174;14.680;2024-03-08T00:03:54;35.70;33.70;39.40;;
70454;Laerm;57915;47.174;14.680;2024-03-08T00:04:54;58.15;33.56;71.30;;
70454;Laerm;57915;47.174;14.680;2024-03-08T00:05:57;36.49;33.89;39.99;;
70454;Laerm;57915;47.174;14.680;2024-03-08T00:06:57;35.85;33.68;38.03;;
70454;Laerm;57915;47.174;14.680;2024-03-08T00:08:00;35.56;33.19;38.57;;
70454;Laerm;57915;47.174;14.680;2024-03-08T00:09:01;36.77;33.89;40.98;;
70454;Laerm;57915;47.174;14.680;2024-03-08T00:10:03;43.11;36.01;49.46;;
70454;Laerm;57915;47.174;14.680;2024-03-08T00:11:03;38.15;35.14;41.62;;
70454;Laerm;57915;47.174;14.680;2024-03-08T00:12:04;38.17;35.44;42.07;;
70454;Laerm;57915;47.174;14.680;2024-03-08T00:13:06;38.72;35.02;45.44;;
70454;Laerm;57915;47.174;14.680;2024-03-08T00:14:07;38.13;34.53;43.47;;
70454;Laerm;57915;47.174;14.680;2024-03-08T00:15:08;36.29;33.28;41.55;;
70454;Laerm;57915;47.174;14.680;2024-03-08T00:16:09;36.35;33.13;38.89;;
70454;Laerm;57915;47.174;14.680;2024-03-08T00:17:10;36.12;33.50;39.09;;
70454;Laerm;57915;47.174;14.680;2024-03-08T00:18:10;36.22;33.53;40.06;;
70454;Laerm;57915;47.174;14.680;2024-03-08T00:19:12;54.16;34.42;68.76;;
70454;Laerm;57915;47.174;14.680;2024-03-08T00:20:12;54.22;36.12;66.47;;
70454;Laerm;57915;47.174;14.680;2024-03-08T00:21:13;38.13;35.27;43.59;;
70454;Laerm;57915;47.174;14.680;2024-03-08T00:22:15;40.58;35.95;48.18;;
70454;Laerm;57915;47.174;14.680;2024-03-08T00:23:17;43.20;39.87;47.27;;
70454;Laerm;57915;47.174;14.680;2024-03-08T00:24:18;42.84;39.30;46.84;;
70454;Laerm;57915;47.174;14.680;2024-03-08T00:25:24;38.26;35.21;42.40;;
70454;Laerm;57915;47.174;14.680;2024-03-08T00:26:26;38.72;35.67;43.01;;
70454;Laerm;57915;47.174;14.680;2024-03-08T00:27:26;40.61;35.84;47.17;;
70454;Laerm;57915;47.174;14.680;2024-03-08T00:28:28;44.18;35.22;53.22;;
70454;Laerm;57915;47.174;14.680;2024-03-08T00:29:29;37.89;34.90;42.36;;
70454;Laerm;57915;47.174;14.680;2024-03-08T00:30:31;57.81;35.55;71.33;;
70454;Laerm;57915;47.174;14.680;2024-03-08T00:31:31;38.75;35.39;42.72;;
70454;Laerm;57915;47.174;14.680;2024-03-08T00:32:33;37.38;34.77;40.05;;
70454;Laerm;57915;47.174;14.680;2024-03-08T00:33:33;43.76;37.26;54.83;;
70454;Laerm;57915;47.174;14.680;2024-03-08T00:34:34;44.72;35.37;54.60;;
70454;Laerm;57915;47.174;14.680;2024-03-08T00:35:36;37.71;34.79;41.88;;
70454;Laerm;57915;47.174;14.680;2024-03-08T00:36:37;36.96;34.32;39.69;;
70454;Laerm;57915;47.174;14.680;2024-03-08T00:37:39;37.34;34.88;40.14;;
70454;Laerm;57915;47.174;14.680;2024-03-08T00:38:40;37.35;34.34;42.74;;
70454;Laerm;57915;47.174;14.680;2024-03-08T00:39:42;36.86;34.42;39.49;;
70454;Laerm;57915;47.174;14.680;2024-03-08T00:40:43;37.37;33.54;40.97;;
70454;Laerm;57915;47.174;14.680;2024-03-08T00:41:44;38.06;34.92;42.87;;
70454;Laerm;57915;47.174;14.680;2024-03-08T00:42:45;37.83;33.35;47.82;;
70454;Laerm;57915;47.174;14.680;2024-03-08T00:43:46;36.50;33.54;41.21;;
70454;Laerm;57915;47.174;14.680;2024-03-08T00:44:47;62.59;34.89;78.21;;
70454;Laerm;57915;47.174;14.680;2024-03-08T00:45:51;37.46;34.56;41.72;;
70454;Laerm;57915;47.174;14.680;2024-03-08T00:46:52;36.78;34.17;39.92;;
70454;Laerm;57915;47.174;14.680;2024-03-08T00:47:53;37.29;34.31;40.54;;
70454;Laerm;57915;47.174;14.680;2024-03-08T00:48:54;36.87;33.98;42.21;;
70454;Laerm;57915;47.174;14.680;2024-03-08T00:49:56;36.23;33.32;38.91;;
70454;Laerm;57915;47.174;14.680;2024-03-08T00:50:57;37.24;34.60;45.34;;
70454;Laerm;57915;47.174;14.680;2024-03-08T00:51:58;37.67;34.37;43.47;;
70454;Laerm;57915;47.174;14.680;2024-03-08T00:52:59;36.74;33.50;39.87;;
70454;Laerm;57915;47.174;14.680;2024-03-08T00:54:01;38.30;34.75;43.16;;
70454;Laerm;57915;47.174;14.680;2024-03-08T00:55:02;36.94;32.75;43.94;;
70454;Laerm;57915;47.174;14.680;2024-03-08T00:56:03;35.64;31.75;48.11;;
70454;Laerm;57915;47.174;14.680;2024-03-08T00:57:05;34.14;30.07;48.99;;
70454;Laerm;57915;47.174;14.680;2024-03-08T00:58:06;36.12;31.33;41.93;;
70454;Laerm;57915;47.174;14.680;2024-03-08T00:59:08;34.90;30.77;44.63;;
70454;Laerm;57915;47.174;14.680;2024-03-08T01:00:09;32.23;30.00;36.06;;
70454;Laerm;57915;47.174;14.680;2024-03-08T01:01:12;32.20;29.62;41.21;;
70454;Laerm;57915;47.174;14.680;2024-03-08T01:02:13;33.04;29.21;42.87;;
70454;Laerm;57915;47.174;14.680;2024-03-08T01:03:14;34.17;29.76;43.57;;
70454;Laerm;57915;47.174;14.680;2024-03-08T01:04:15;34.15;30.13;47.71;;
70454;Laerm;57915;47.174;14.680;2024-03-08T01:05:16;32.51;30.10;38.49;;
70454;Laerm;57915;47.174;14.680;2024-03-08T01:06:17;31.65;29.51;36.45;;
70454;Laerm;57915;47.174;14.680;2024-03-08T01:07:18;33.02;30.19;42.32;;
70454;Laerm;57915;47.174;14.680;2024-03-08T01:08:19;35.18;31.02;41.39;;
70454;Laerm;57915;47.174;14.680;2024-03-08T01:09:22;33.02;30.45;37.51;;
70454;Laerm;57915;47.174;14.680;2024-03-08T01:10:23;32.45;30.40;36.19;;
70454;Laerm;57915;47.174;14.680;2024-03-08T01:11:24;53.98;31.11;67.12;;
70454;Laerm;57915;47.174;14.680;2024-03-08T01:12:25;32.72;30.60;35.90;;
70454;Laerm;57915;47.174;14.680;2024-03-08T01:13:26;32.23;30.44;37.58;;
70454;Laerm;57915;47.174;14.680;2024-03-08T01:14:26;32.51;30.44;37.92;;
70454;Laerm;57915;47.174;14.680;2024-03-08T01:15:28;55.36;30.74;69.78;;
70454;Laerm;57915;47.174;14.680;2024-03-08T01:16:30;32.61;30.56;35.25;;
70454;Laerm;57915;47.174;14.680;2024-03-08T01:17:33;32.96;31.03;35.25;;
70454;Laerm;57915;47.174;14.680;2024-03-08T01:18:33;33.44;31.26;37.99;;
70454;Laerm;57915;47.174;14.680;2024-03-08T01:19:35;33.57;31.49;36.98;;
70454;Laerm;57915;47.174;14.680;2024-03-08T01:20:36;33.53;31.51;36.89;;
70454;Laerm;57915;47.174;14.680;2024-03-08T01:21:37;33.88;31.93;37.46;;
70454;Laerm;57915;47.174;14.680;2024-03-08T01:22:38;34.55;32.41;38.18;;
70454;Laerm;57915;47.174;14.680;2024-03-08T01:23:40;34.79;32.79;37.35;;
70454;Laerm;57915;47.174;14.680;2024-03-08T01:24:41;34.95;32.67;37.92;;
70454;Laerm;57915;47.174;14.680;2024-03-08T01:25:43;35.10;32.79;38.91;;
70454;Laerm;57915;47.174;14.680;2024-03-08T01:26:44;35.46;32.88;38.25;;
70454;Laerm;57915;47.174;14.680;2024-03-08T01:27:45;34.56;32.56;37.29;;
70454;Laerm;57915;47.174;14.680;2024-03-08T01:28:46;34.58;32.61;37.02;;
70454;Laerm;57915;47.174;14.680;2024-03-08T01:29:46;34.85;32.45;38.99;;
70454;Laerm;57915;47.174;14.680;2024-03-08T01:30:48;34.42;32.08;36.55;;
70454;Laerm;57915;47.174;14.680;2024-03-08T01:31:50;34.19;31.43;37.04;;
70454;Laerm;57915;47.174;14.680;2024-03-08T01:32:52;33.86;31.90;36.41;;
70454;Laerm;57915;47.174;14.680;2024-03-08T01:33:53;35.07;31.85;40.47;;
70454;Laerm;57915;47.174;14.680;2024-03-08T01:34:55;34.18;31.80;36.58;;
70454;Laerm;57915;47.174;14.680;2024-03-08T01:35:55;33.86;31.50;37.51;;
70454;Laerm;57915;47.174;14.680;2024-03-08T01:36:57;34.17;32.20;36.84;;
70454;Laerm;57915;47.174;14.680;2024-03-08T01:37:57;34.18;31.89;36.31;;
70454;Laerm;57915;47.174;14.680;2024-03-08T01:38:59;34.23;32.26;36.80;;
70454;Laerm;57915;47.174;14.680;2024-03-08T01:40:01;34.54;32.19;37.51;;
70454;Laerm;57915;47.174;14.680;2024-03-08T01:41:03;35.53;33.18;37.80;;
70454;Laerm;57915;47.174;14.680;2024-03-08T01:42:04;34.98;32.83;37.54;;
70454;Laerm;57915;47.174;14.680;2024-03-08T01:43:16;34.99;32.55;37.19;;
70454;Laerm;57915;47.174;14.680;2024-03-08T01:44:16;36.11;33.22;39.41;;
70454;Laerm;57915;47.174;14.680;2024-03-08T01:45:18;36.53;34.11;39.68;;
70454;Laerm;57915;47.174;14.680;2024-03-08T01:46:19;43.79;36.13;50.74;;
70454;Laerm;57915;47.174;14.680;2024-03-08T01:47:22;41.85;34.49;50.19;;
70454;Laerm;57915;47.174;14.680;2024-03-08T01:48:23;56.98;34.64;70.77;;
70454;Laerm;57915;47.174;14.680;2024-03-08T01:49:24;37.49;34.78;41.23;;
70454;Laerm;57915;47.174;14.680;2024-03-08T01:50:26;37.24;34.68;40.98;;
70454;Laerm;57915;47.174;14.680;2024-03-08T01:51:28;36.77;34.16;40.98;;
70454;Laerm;57915;47.174;14.680;2024-03-08T01:52:29;55.82;34.29;67.62;;
70454;Laerm;57915;47.174;14.680;2024-03-08T01:53:31;54.07;34.65;67.96;;
70454;Laerm;57915;47.174;14.680;2024-03-08T01:54:32;36.86;34.15;42.34;;
70454;Laerm;57915;47.174;14.680;2024-03-08T01:55:36;37.42;35.01;40.85;;
70454;Laerm;57915;47.174;14.680;2024-03-08T01:56:36;37.37;34.45;44.45;;
70454;Laerm;57915;47.174;14.680;2024-03-08T01:57:39;46.28;36.65;57.66;;
70454;Laerm;57915;47.174;14.680;2024-03-08T01:58:40;39.35;35.03;47.47;;
70454;Laerm;57915;47.174;14.680;2024-03-08T01:59:42;36.82;34.49;40.24;;
70454;Laerm;57915;47.174;14.680;2024-03-08T02:00:43;37.53;34.20;43.49;;
70454;Laerm;57915;47.174;14.680;2024-03-08T02:01:45;36.76;34.22;46.96;;
70454;Laerm;57915;47.174;14.680;2024-03-08T02:02:46;37.53;34.12;42.66;;
70454;Laerm;57915;47.174;14.680;2024-03-08T02:03:47;39.82;35.24;48.47;;
70454;Laerm;57915;47.174;14.680;2024-03-08T02:04:49;58.09;38.43;70.06;;
70454;Laerm;57915;47.174;14.680;2024-03-08T02:05:52;42.04;35.79;53.60;;
70454;Laerm;57915;47.174;14.680;2024-03-08T02:06:54;39.30;35.11;50.98;;
70454;Laerm;57915;47.174;14.680;2024-03-08T02:07:55;39.31;35.82;52.68;;
70454;Laerm;57915;47.174;14.680;2024-03-08T02:08:57;38.42;35.42;46.96;;
70454;Laerm;57915;47.174;14.680;2024-03-08T02:09:58;37.98;35.35;45.76;;
70454;Laerm;57915;47.174;14.680;2024-03-08T02:11:00;36.88;34.65;41.31;;
70454;Laerm;57915;47.174;14.680;2024-03-08T02:12:02;37.53;34.71;40.00;;
70454;Laerm;57915;47.174;14.680;2024-03-08T02:13:03;38.07;35.29;44.61;;
70454;Laerm;57915;47.174;14.680;2024-03-08T02:14:04;38.36;35.81;41.44;;
70454;Laerm;57915;47.174;14.680;2024-03-08T02:15:06;38.40;35.31;43.60;;
70454;Laerm;57915;47.174;14.680;2024-03-08T02:16:07;46.31;36.66;54.20;;
70454;Laerm;57915;47.174;14.680;2024-03-08T02:17:09;53.53;36.25;67.25;;
70454;Laerm;57915;47.174;14.680;2024-03-08T02:18:09;39.09;35.33;42.66;;
70454;Laerm;57915;47.174;14.680;2024-03-08T02:19:10;38.88;36.28;41.02;;
70454;Laerm;57915;47.174;14.680;2024-03-08T02:20:12;38.66;35.46;44.88;;
70454;Laerm;57915;47.174;14.680;2024-03-08T02:21:15;39.50;34.85;46.85;;
70454;Laerm;57915;47.174;14.680;2024-03-08T02:22:18;38.59;33.61;47.17;;
70454;Laerm;57915;47.174;14.680;2024-03-08T02:23:19;36.75;33.02;44.94;;
70454;Laerm;57915;47.174;14.680;2024-03-08T02:24:21;35.42;32.55;45.30;;
70454;Laerm;57915;47.174;14.680;2024-03-08T02:25:21;36.34;33.46;39.36;;
70454;Laerm;57915;47.174;14.680;2024-03-08T02:26:23;38.76;34.46;46.13;;
70454;Laerm;57915;47.174;14.680;2024-03-08T02:27:23;38.03;34.89;43.32;;
70454;Laerm;57915;47.174;14.680;2024-03-08T02:28:25;40.08;35.13;49.93;;
70454;Laerm;57915;47.174;14.680;2024-03-08T02:29:26;47.84;39.63;55.04;;
70454;Laerm;57915;47.174;14.680;2024-03-08T02:30:27;47.43;38.29;54.15;;
70454;Laerm;57915;47.174;14.680;2024-03-08T02:31:29;39.77;34.99;46.97;;
70454;Laerm;57915;47.174;14.680;2024-03-08T02:32:31;38.69;35.40;43.02;;
70454;Laerm;57915;47.174;14.680;2024-03-08T02:33:32;39.23;36.55;41.26;;
70454;Laerm;57915;47.174;14.680;2024-03-08T02:34:34;39.10;35.91;43.43;;
70454;Laerm;57915;47.174;14.680;2024-03-08T02:35:34;39.84;36.76;43.55;;
70454;Laerm;57915;47.174;14.680;2024-03-08T02:36:38;39.55;36.04;45.36;;
70454;Laerm;57915;47.174;14.680;2024-03-08T02:37:38;39.59;36.59;42.87;;
70454;Laerm;57915;47.174;14.680;2024-03-08T02:38:40;39.78;36.95;42.47;;
70454;Laerm;57915;47.174;14.680;2024-03-08T02:39:41;39.67;36.02;42.35;;
70454;Laerm;57915;47.174;14.680;2024-03-08T02:40:43;39.46;36.87;42.39;;
70454;Laerm;57915;47.174;14.680;2024-03-08T02:41:43;40.71;37.86;43.68;;
70454;Laerm;57915;47.174;14.680;2024-03-08T02:42:45;40.05;37.30;44.56;;
70454;Laerm;57915;47.174;14.680;2024-03-08T02:43:45;57.98;36.82;72.29;;
70454;Laerm;57915;47.174;14.680;2024-03-08T02:44:47;47.88;37.11;64.23;;
70454;Laerm;57915;47.174;14.680;2024-03-08T02:45:47;39.64;35.76;46.40;;
70454;Laerm;57915;47.174;14.680;2024-03-08T02:46:49;38.42;34.86;44.70;;
70454;Laerm;57915;47.174;14.680;2024-03-08T02:47:51;38.24;35.06;41.55;;
70454;Laerm;57915;47.174;14.680;2024-03-08T02:48:52;37.31;34.52;40.87;;
70454;Laerm;57915;47.174;14.680;2024-03-08T02:49:53;38.40;35.37;42.29;;
70454;Laerm;57915;47.174;14.680;2024-03-08T02:50:54;41.12;35.11;50.95;;
70454;Laerm;57915;47.174;14.680;2024-03-08T02:51:56;55.84;34.61;68.86;;
70454;Laerm;57915;47.174;14.680;2024-03-08T02:52:58;37.54;34.52;42.08;;
70454;Laerm;57915;47.174;14.680;2024-03-08T02:53:59;37.39;34.60;43.89;;
70454;Laerm;57915;47.174;14.680;2024-03-08T02:55:00;37.42;34.98;39.98;;
70454;Laerm;57915;47.174;14.680;2024-03-08T02:56:01;37.82;34.87;41.27;;
70454;Laerm;57915;47.174;14.680;2024-03-08T02:57:02;39.16;35.73;42.53;;
70454;Laerm;57915;47.174;14.680;2024-03-08T02:58:04;38.67;36.10;41.49;;
70454;Laerm;57915;47.174;14.680;2024-03-08T02:59:08;37.84;34.66;40.58;;
70454;Laerm;57915;47.174;14.680;2024-03-08T03:00:09;37.33;34.78;43.14;;
70454;Laerm;57915;47.174;14.680;2024-03-08T03:01:11;39.36;35.53;43.37;;
70454;Laerm;57915;47.174;14.680;2024-03-08T03:02:11;56.51;37.84;70.80;;
70454;Laerm;57915;47.174;14.680;2024-03-08T03:03:12;39.82;36.03;45.76;;
70454;Laerm;57915;47.174;14.680;2024-03-08T03:04:13;38.91;34.91;44.97;;
70454;Laerm;57915;47.174;14.680;2024-03-08T03:05:14;37.98;34.57;45.48;;
70454;Laerm;57915;47.174;14.680;2024-03-08T03:06:15;37.89;34.80;43.56;;
70454;Laerm;57915;47.174;14.680;2024-03-08T03:07:18;38.67;34.68;43.06;;
70454;Laerm;57915;47.174;14.680;2024-03-08T03:08:19;53.93;36.73;66.15;;
70454;Laerm;57915;47.174;14.680;2024-03-08T03:09:20;55.97;36.65;67.67;;
70454;Laerm;57915;47.174;14.680;2024-03-08T03:10:24;56.10;36.85;70.10;;
70454;Laerm;57915;47.174;14.680;2024-03-08T03:11:26;39.89;36.78;43.72;;
70454;Laerm;57915;47.174;14.680;2024-03-08T03:12:27;58.25;37.72;69.04;;
70454;Laerm;57915;47.174;14.680;2024-03-08T03:13:28;40.45;37.02;43.43;;
70454;Laerm;57915;47.174;14.680;2024-03-08T03:14:29;41.30;37.30;46.02;;
70454;Laerm;57915;47.174;14.680;2024-03-08T03:15:31;41.09;37.96;46.20;;
70454;Laerm;57915;47.174;14.680;2024-03-08T03:16:31;42.61;39.03;48.33;;
70454;Laerm;57915;47.174;14.680;2024-03-08T03:17:33;42.58;37.96;50.46;;
70454;Laerm;57915;47.174;14.680;2024-03-08T03:18:33;45.73;37.52;52.99;;
70454;Laerm;57915;47.174;14.680;2024-03-08T03:19:33;47.90;39.62;52.47;;
70454;Laerm;57915;47.174;14.680;2024-03-08T03:20:35;55.22;37.37;68.09;;
70454;Laerm;57915;47.174;14.680;2024-03-08T03:21:40;58.47;35.50;72.58;;
70454;Laerm;57915;47.174;14.680;2024-03-08T03:22:44;59.43;35.68;73.77;;
70454;Laerm;57915;47.174;14.680;2024-03-08T03:23:47;39.13;35.04;46.21;;
70454;Laerm;57915;47.174;14.680;2024-03-08T03:24:48;57.79;36.40;71.52;;
70454;Laerm;57915;47.174;14.680;2024-03-08T03:25:49;46.94;36.36;57.80;;
70454;Laerm;57915;47.174;14.680;2024-03-08T03:26:50;38.72;34.89;46.41;;
70454;Laerm;57915;47.174;14.680;2024-03-08T03:27:52;57.66;35.75;70.76;;
70454;Laerm;57915;47.174;14.680;2024-03-08T03:28:52;58.30;39.49;72.31;;
70454;Laerm;57915;47.174;14.680;2024-03-08T03:29:54;56.90;41.09;70.06;;
70454;Laerm;57915;47.174;14.680;2024-03-08T03:30:55;58.42;39.60;70.24;;
70454;Laerm;57915;47.174;14.680;2024-03-08T03:31:58;57.12;35.70;70.90;;
70454;Laerm;57915;47.174;14.680;2024-03-08T03:32:59;52.10;37.66;62.81;;
70454;Laerm;57915;47.174;14.680;2024-03-08T03:34:01;47.50;37.43;60.30;;
70454;Laerm;57915;47.174;14.680;2024-03-08T03:35:02;62.30;36.15;76.50;;
70454;Laerm;57915;47.174;14.680;2024-03-08T03:36:05;58.73;37.42;72.38;;
70454;Laerm;57915;47.174;14.680;2024-03-08T03:37:06;58.32;38.05;69.44;;
70454;Laerm;57915;47.174;14.680;2024-03-08T03:38:10;39.65;36.49;46.15;;
70454;Laerm;57915;47.174;14.680;2024-03-08T03:39:10;58.47;37.13;69.01;;
70454;Laerm;57915;47.174;14.680;2024-03-08T03:40:15;54.29;35.64;67.84;;
70454;Laerm;57915;47.174;14.680;2024-03-08T03:41:18;52.06;35.10;66.14;;
70454;Laerm;57915;47.174;14.680;2024-03-08T03:42:20;54.28;35.08;68.87;;
70454;Laerm;57915;47.174;14.680;2024-03-08T03:43:20;61.11;39.78;72.40;;
70454;Laerm;57915;47.174;14.680;2024-03-08T03:44:22;55.76;36.42;69.00;;
70454;Laerm;57915;47.174;14.680;2024-03-08T03:45:23;47.19;38.02;58.74;;
70454;Laerm;57915;47.174;14.680;2024-03-08T03:46:24;48.05;44.08;57.82;;
70454;Laerm;57915;47.174;14.680;2024-03-08T03:47:27;56.39;39.52;69.37;;
70454;Laerm;57915;47.174;14.680;2024-03-08T03:48:27;53.88;35.49;66.97;;
70454;Laerm;57915;47.174;14.680;2024-03-08T03:49:29;56.55;38.75;70.59;;
70454;Laerm;57915;47.174;14.680;2024-03-08T03:50:29;54.67;36.08;67.82;;
70454;Laerm;57915;47.174;14.680;2024-03-08T03:51:31;51.22;35.20;66.41;;
70454;Laerm;57915;47.174;14.680;2024-03-08T03:52:31;57.46;34.74;69.86;;
70454;Laerm;57915;47.174;14.680;2024-03-08T03:53:34;36.96;34.46;43.18;;
70454;Laerm;57915;47.174;14.680;2024-03-08T03:54:34;42.84;36.08;49.93;;
70454;Laerm;57915;47.174;14.680;2024-03-08T03:55:36;56.22;35.55;69.08;;
70454;Laerm;57915;47.174;14.680;2024-03-08T03:56:38;39.89;34.74;45.59;;
70454;Laerm;57915;47.174;14.680;2024-03-08T03:57:40;39.85;36.13;45.86;;
70454;Laerm;57915;47.174;14.680;2024-03-08T03:58:41;39.77;35.79;44.83;;
70454;Laerm;57915;47.174;14.680;2024-03-08T03:59:42;38.49;34.58;44.94;;
70454;Laerm;57915;47.174;14.680;2024-03-08T04:00:43;54.10;34.44;66.47;;
70454;Laerm;57915;47.174;14.680;2024-03-08T04:01:44;46.41;34.89;61.56;;
70454;Laerm;57915;47.174;14.680;2024-03-08T04:02:45;60.20;35.04;73.16;;
70454;Laerm;57915;47.174;14.680;2024-03-08T04:03:46;39.61;35.33;45.36;;
70454;Laerm;57915;47.174;14.680;2024-03-08T04:04:47;59.83;36.73;72.47;;
70454;Laerm;57915;47.174;14.680;2024-03-08T04:05:49;46.90;37.30;60.25;;
70454;Laerm;57915;47.174;14.680;2024-03-08T04:06:49;49.05;37.18;58.48;;
70454;Laerm;57915;47.174;14.680;2024-03-08T04:07:51;46.80;39.26;59.30;;
70454;Laerm;57915;47.174;14.680;2024-03-08T04:08:54;57.58;36.29;71.19;;
70454;Laerm;57915;47.174;14.680;2024-03-08T04:09:54;56.06;37.78;69.45;;
70454;Laerm;57915;47.174;14.680;2024-03-08T04:10:56;54.22;36.30;67.99;;
70454;Laerm;57915;47.174;14.680;2024-03-08T04:11:57;57.12;37.75;70.53;;
70454;Laerm;57915;47.174;14.680;2024-03-08T04:12:58;59.76;41.93;70.62;;
70454;Laerm;57915;47.174;14.680;2024-03-08T04:13:59;62.39;37.82;73.83;;
70454;Laerm;57915;47.174;14.680;2024-03-08T04:15:00;54.69;38.16;68.05;;
70454;Laerm;57915;47.174;14.680;2024-03-08T04:16:01;45.17;37.43;55.99;;
70454;Laerm;57915;47.174;14.680;2024-03-08T04:17:03;59.22;39.49;71.49;;
70454;Laerm;57915;47.174;14.680;2024-03-08T04:18:03;59.06;39.30;69.58;;
70454;Laerm;57915;47.174;14.680;2024-03-08T04:19:05;53.80;38.92;67.51;;
70454;Laerm;57915;47.174;14.680;2024-03-08T04:20:06;57.44;38.54;70.71;;
70454;Laerm;57915;47.174;14.680;2024-03-08T04:21:09;53.42;37.92;65.54;;
70454;Laerm;57915;47.174;14.680;2024-03-08T04:22:11;55.75;39.06;69.36;;
70454;Laerm;57915;47.174;14.680;2024-03-08T04:23:12;58.02;44.17;70.73;;
70454;Laerm;57915;47.174;14.680;2024-03-08T04:24:14;60.12;45.95;72.43;;
70454;Laerm;57915;47.174;14.680;2024-03-08T04:25:17;53.59;40.26;66.34;;
70454;Laerm;57915;47.174;14.680;2024-03-08T04:26:18;60.08;46.41;69.61;;
70454;Laerm;57915;47.174;14.680;2024-03-08T04:27:19;57.91;46.68;72.80;;
70454;Laerm;57915;47.174;14.680;2024-03-08T04:28:19;60.93;41.70;71.32;;
70454;Laerm;57915;47.174;14.680;2024-03-08T04:29:21;59.08;39.97;68.69;;
70454;Laerm;57915;47.174;14.680;2024-03-08T04:30:22;60.55;50.60;71.36;;
70454;Laerm;57915;47.174;14.680;2024-03-08T04:31:24;52.24;41.29;66.73;;
70454;Laerm;57915;47.174;14.680;2024-03-08T04:32:26;58.11;40.64;76.24;;
70454;Laerm;57915;47.174;14.680;2024-03-08T04:33:29;57.65;41.12;70.67;;
70454;Laerm;57915;47.174;14.680;2024-03-08T04:34:29;61.99;43.10;70.43;;
70454;Laerm;57915;47.174;14.680;2024-03-08T04:35:31;60.53;42.61;73.13;;
70454;Laerm;57915;47.174;14.680;2024-03-08T04:36:31;59.24;42.98;69.93;;
70454;Laerm;57915;47.174;14.680;2024-03-08T04:37:34;63.17;44.15;76.94;;
70454;Laerm;57915;47.174;14.680;2024-03-08T04:38:36;55.65;41.31;66.64;;
70454;Laerm;57915;47.174;14.680;2024-03-08T04:39:38;60.27;42.04;69.78;;
70454;Laerm;57915;47.174;14.680;2024-03-08T04:40:38;61.91;44.12;72.31;;
70454;Laerm;57915;47.174;14.680;2024-03-08T04:41:40;43.63;38.46;49.72;;
70454;Laerm;57915;47.174;14.680;2024-03-08T04:42:41;43.27;38.43;49.93;;
70454;Laerm;57915;47.174;14.680;2024-03-08T04:43:43;60.48;43.19;69.34;;
70454;Laerm;57915;47.174;14.680;2024-03-08T04:44:44;60.71;39.40;72.01;;
70454;Laerm;57915;47.174;14.680;2024-03-08T04:45:46;64.14;39.99;73.12;;
70454;Laerm;57915;47.174;14.680;2024-03-08T04:46:46;59.18;41.74;72.23;;
70454;Laerm;57915;47.174;14.680;2024-03-08T04:47:48;59.67;43.91;69.91;;
70454;Laerm;57915;47.174;14.680;2024-03-08T04:48:48;60.94;45.55;71.31;;
70454;Laerm;57915;47.174;14.680;2024-03-08T04:49:48;61.03;42.57;71.36;;
70454;Laerm;57915;47.174;14.680;2024-03-08T04:50:50;57.97;40.06;70.07;;
70454;Laerm;57915;47.174;14.680;2024-03-08T04:51:50;56.67;38.67;69.80;;
70454;Laerm;57915;47.174;14.680;2024-03-08T04:52:52;59.16;37.28;72.93;;
70454;Laerm;57915;47.174;14.680;2024-03-08T04:53:52;57.47;38.21;69.59;;
70454;Laerm;57915;47.174;14.680;2024-03-08T04:54:55;61.26;38.33;70.54;;
70454;Laerm;57915;47.174;14.680;2024-03-08T04:55:56;60.00;37.72;71.66;;
70454;Laerm;57915;47.174;14.680;2024-03-08T04:56:58;59.54;37.37;73.87;;
70454;Laerm;57915;47.174;14.680;2024-03-08T04:58:01;58.43;37.81;71.47;;
70454;Laerm;57915;47.174;14.680;2024-03-08T04:59:01;59.74;39.07;70.68;;
70454;Laerm;57915;47.174;14.680;2024-03-08T05:00:03;56.89;37.31;70.81;;
70454;Laerm;57915;47.174;14.680;2024-03-08T05:01:04;56.47;37.31;68.69;;
70454;Laerm;57915;47.174;14.680;2024-03-08T05:02:06;43.09;37.45;51.94;;
70454;Laerm;57915;47.174;14.680;2024-03-08T05:03:07;42.74;37.39;56.19;;
70454;Laerm;57915;47.174;14.680;2024-03-08T05:04:08;57.32;38.03;70.73;;
70454;Laerm;57915;47.174;14.680;2024-03-08T05:05:09;54.65;39.31;65.31;;
70454;Laerm;57915;47.174;14.680;2024-03-08T05:06:12;55.10;38.36;67.34;;
70454;Laerm;57915;47.174;14.680;2024-03-08T05:07:13;51.29;38.14;65.77;;
70454;Laerm;57915;47.174;14.680;2024-03-08T05:08:13;51.14;39.64;66.27;;
70454;Laerm;57915;47.174;14.680;2024-03-08T05:09:15;61.63;42.68;72.69;;
70454;Laerm;57915;47.174;14.680;2024-03-08T05:10:18;61.16;42.47;70.72;;
70454;Laerm;57915;47.174;14.680;2024-03-08T05:11:19;60.47;40.01;73.47;;
70454;Laerm;57915;47.174;14.680;2024-03-08T05:12:19;48.58;38.93;62.63;;
70454;Laerm;57915;47.174;14.680;2024-03-08T05:13:22;62.20;44.07;73.70;;
70454;Laerm;57915;47.174;14.680;2024-03-08T05:14:23;58.80;39.63;71.98;;
70454;Laerm;57915;47.174;14.680;2024-03-08T05:15:25;58.52;40.02;71.68;;
70454;Laerm;57915;47.174;14.680;2024-03-08T05:16:25;56.87;39.80;70.08;;
70454;Laerm;57915;47.174;14.680;2024-03-08T05:17:27;63.18;45.99;71.16;;
70454;Laerm;57915;47.174;14.680;2024-03-08T05:18:28;42.27;38.40;49.89;;
70454;Laerm;57915;47.174;14.680;2024-03-08T05:19:28;56.30;40.78;67.35;;
70454;Laerm;57915;47.174;14.680;2024-03-08T05:20:30;58.11;41.36;67.48;;
70454;Laerm;57915;47.174;14.680;2024-03-08T05:21:31;43.75;39.72;49.47;;
70454;Laerm;57915;47.174;14.680;2024-03-08T05:22:33;58.04;39.86;71.24;;
70454;Laerm;57915;47.174;14.680;2024-03-08T05:23:33;58.40;39.19;71.58;;
70454;Laerm;57915;47.174;14.680;2024-03-08T05:24:35;54.98;39.72;67.61;;
70454;Laerm;57915;47.174;14.680;2024-03-08T05:25:37;60.76;40.77;70.77;;
70454;Laerm;57915;47.174;14.680;2024-03-08T05:26:38;60.12;40.60;70.86;;
70454;Laerm;57915;47.174;14.680;2024-03-08T05:27:39;62.47;43.58;72.64;;
70454;Laerm;57915;47.174;14.680;2024-03-08T05:28:41;55.71;40.83;72.74;;
70454;Laerm;57915;47.174;14.680;2024-03-08T05:29:41;63.20;44.27;73.73;;
70454;Laerm;57915;47.174;14.680;2024-03-08T05:30:43;59.65;43.09;73.81;;
70454;Laerm;57915;47.174;14.680;2024-03-08T05:31:46;63.68;46.19;75.61;;
70454;Laerm;57915;47.174;14.680;2024-03-08T05:32:47;63.57;40.12;76.89;;
70454;Laerm;57915;47.174;14.680;2024-03-08T05:33:48;58.40;38.82;72.24;;
70454;Laerm;57915;47.174;14.680;2024-03-08T05:34:48;60.66;39.85;70.68;;
70454;Laerm;57915;47.174;14.680;2024-03-08T05:35:50;60.41;42.12;70.36;;
70454;Laerm;57915;47.174;14.680;2024-03-08T05:36:52;52.50;40.97;65.01;;
70454;Laerm;57915;47.174;14.680;2024-03-08T05:37:54;60.29;42.35;71.18;;
70454;Laerm;57915;47.174;14.680;2024-03-08T05:38:55;62.00;41.45;70.99;;